Tacna, Arizona
Current Conditions -  °F | °C
As of 8:57 PM on Tuesday 25 Nov 2014 (Local Time) from KNYL Reporting Station
Clear Clear  
Wind Chill: 58°   Ceiling: Unl
Heat Index: 58°   Visibility: 10mi
Dew Point: 19°   Wind: 3mph
Humidity: 22%   Direction: 250°WSW
Pressure: 30.3"   Gusts: NA
Location:  32.7°N, 113.96°W
Report Text: KNYL 260357Z 25003KT 10SM CLR 14/M07 A3030 RMK AO2 SLP260 T01441072
Loading
Personal Weather Stations






























Interactive Weather Map New forecast layout! Learn more

10-Day Weather Forecast

Advertisements
Track Severe Weather on mobile